Buea, Cameroon
Current Conditions -  °F | °C
As of 7:00 PM on Sunday 21 Dec 2014 (Local Time) from FKKD Reporting Station
Scattered Clouds Scattered Clouds  
Wind Chill: 28°   Ceiling: Unl
Heat Index: 33°   Visibility: 4mi
Dew Point: 25°   Wind: 0mph
Humidity: 84%   Direction: NA
Pressure: 29.8"   Gusts: NA
Location:  4.16°N, 9.23°E
Report Text: FKKD 211800Z 00000KT 7000 SCT013 FEW016CB 28/25 Q1009 NOSIG
Loading
Personal Weather Stations






























Interactive Weather Map New forecast layout! Learn more

10-Day Weather Forecast

Advertisements
Track Severe Weather on mobile